For water level readings from Victoria harbour, visit our Tides page.

DISCLAIMER: Although GVHA takes care to produce accurate readings from Ogden Point, the weather information on this site is raw data fed directly from sensors. It does not go through the same quality control processes used by professional weather services, and should not be relied on as a sole source of weather information for Victoria harbour.

In-depth weather values from Victoria Harbour can be found on the Environment Canada website.

Location: Ogden Point Breakwater

Current time: Feb 29, 2020 10:50 AM GMT | Feb 29, 2020 2:50 AM

Last Hour Last 3 Hours Last 6 Hours Last 12 Hours
Time Peak Wind Speed Avg Speed Avg Direction Avg Air Temp Avg Dew Point Avg Humidity
Feb 29, 2020 02:50 AM 25.2 knots 20.7 knots 207° True 5.4° C / 40.8° F 3.4° C / 36.8° F 86.9%
Feb 29, 2020 02:40 AM 25.2 knots 20.2 knots 206° True 5.3° C / 40.6° F 3.2° C / 36.4° F 86.1%
Feb 29, 2020 02:30 AM 23.3 knots 18.9 knots 212° True 5.3° C / 40.6° F 3.2° C / 36.4° F 86.5%
Feb 29, 2020 02:20 AM 20.6 knots 15.2 knots 212° True 5.3° C / 40.6° F 3.3° C / 36.6° F 86.7%
Feb 29, 2020 02:10 AM 17.9 knots 14 knots 214° True 5.5° C / 41° F 3.1° C / 36.2° F 84.5%
Feb 29, 2020 02:00 AM 21.4 knots 16.2 knots 209° True 5.5° C / 41° F 2.9° C / 35.8° F 83.6%
Feb 29, 2020 01:50 AM 22.6 knots 15 knots 216° True 5.4° C / 40.8° F 3.3° C / 36.6° F 86.3%
Feb 29, 2020 01:40 AM 19.3 knots 13.3 knots 233° True 5.5° C / 41° F 3.4° C / 36.8° F 86.3%
Feb 29, 2020 01:30 AM 17.8 knots 12.9 knots 220° True 5.5° C / 41° F 3.2° C / 36.4° F 85.2%
Feb 29, 2020 01:20 AM 21.4 knots 17 knots 218° True 5.4° C / 40.8° F 3.1° C / 36.2° F 84.6%
Feb 29, 2020 01:10 AM 28.3 knots 22 knots 221° True 5.5° C / 41° F 3.1° C / 36.2° F 84.3%
Feb 29, 2020 01:00 AM 27.2 knots 20.9 knots 217° True 5.8° C / 41.6° F 3.4° C / 36.8° F 84.8%
Feb 29, 2020 12:50 AM 29 knots 21.3 knots 213° True 6° C / 42° F 3.3° C / 36.6° F 82.6%
Feb 29, 2020 12:40 AM 31.1 knots 22.5 knots 215° True 6° C / 42° F 3.5° C / 37° F 84.1%
Feb 29, 2020 12:30 AM 31.7 knots 24.7 knots 215° True 6° C / 42° F 3.7° C / 37.4° F 85.1%
Feb 29, 2020 12:20 AM 29.6 knots 24.2 knots 214° True 6.1° C / 42.2° F 3.8° C / 37.6° F 85%
Feb 29, 2020 12:10 AM 29.1 knots 23.8 knots 205° True 6.1° C / 42.2° F 3.8° C / 37.6° F 84.8%
Feb 29, 2020 12:00 AM 30 knots 23.2 knots 207° True 6.1° C / 42.2° F 3.9° C / 37.8° F 85.6%
Feb 28, 2020 11:50 PM 32.2 knots 25.2 knots 201° True 6° C / 42° F 3.7° C / 37.4° F 85.2%
Feb 28, 2020 11:40 PM 34.9 knots 23.4 knots 174° True 6.1° C / 42.2° F 3.8° C / 37.6° F 85.2%
Feb 28, 2020 11:30 PM 24.6 knots 21 knots 152° True 6.1° C / 42.2° F 3.4° C / 36.8° F 82.9%
Feb 28, 2020 11:20 PM 25.3 knots 19.4 knots 144° True 6.2° C / 42.4° F 3.3° C / 36.6° F 81.6%
Feb 28, 2020 11:10 PM 16.5 knots 13 knots 138° True 5.8° C / 41.6° F 3.6° C / 37.2° F 85.2%
Feb 28, 2020 11:00 PM 15.9 knots 12.3 knots 146° True 5.7° C / 41.4° F 3.5° C / 37° F 85.7%
Feb 28, 2020 10:50 PM 14.7 knots 12.7 knots 141° True 5.7° C / 41.4° F 3.6° C / 37.2° F 86.5%
Feb 28, 2020 10:40 PM 18.8 knots 14.8 knots 150° True 5.8° C / 41.6° F 3.9° C / 37.8° F 88%
Feb 28, 2020 10:30 PM 15 knots 11.7 knots 139° True 6° C / 42° F 4.4° C / 38.8° F 89.7%
Feb 28, 2020 10:20 PM 13.1 knots 7 knots 122° True 5.9° C / 41.8° F 4.6° C / 39.2° F 91.1%
Feb 28, 2020 10:10 PM 8.1 knots 4.9 knots 108° True 5.6° C / 41.2° F 4.2° C / 38.4° F 90.2%
Feb 28, 2020 10:00 PM 4.4 knots 3.2 knots 89° True 5.4° C / 40.8° F 3.8° C / 37.6° F 89.4%
Feb 28, 2020 09:50 PM 4.7 knots 3.5 knots 99° True 5.4° C / 40.8° F 3.7° C / 37.4° F 88.4%
Feb 28, 2020 09:40 PM 4.1 knots 2.9 knots 80° True 5.5° C / 41° F 3.5° C / 37° F 86.8%
Feb 28, 2020 09:30 PM 4.4 knots 2.7 knots 107° True 5.6° C / 41.2° F 3.4° C / 36.8° F 85.9%
Feb 28, 2020 09:20 PM 4.1 knots 3 knots 95° True 5.6° C / 41.2° F 3.3° C / 36.6° F 85.5%
Feb 28, 2020 09:10 PM 3.9 knots 2.4 knots 19° True 5.4° C / 40.8° F 3.1° C / 36.2° F 84.6%
Feb 28, 2020 09:00 PM 4.9 knots 2.7 knots 260° True 5.5° C / 41° F 3° C / 36° F 83.9%
Feb 28, 2020 08:50 PM 8.6 knots 5.5 knots 266° True 5.6° C / 41.2° F 2.9° C / 35.8° F 83%
Feb 28, 2020 08:40 PM 8.7 knots 7.1 knots 267° True 6° C / 42° F 2.9° C / 35.8° F 80.9%
Feb 28, 2020 08:30 PM 5.9 knots 4 knots 268° True 6.3° C / 42.6° F 3° C / 36° F 79.3%
Feb 28, 2020 08:20 PM 3.9 knots 3 knots 211° True 6.2° C / 42.4° F 3° C / 36° F 79.9%
Feb 28, 2020 08:10 PM 6.1 knots 4.2 knots 187° True 6.2° C / 42.4° F 2.9° C / 35.8° F 79.2%
Feb 28, 2020 08:00 PM 8.1 knots 4.8 knots 206° True 6.2° C / 42.4° F 2.8° C / 35.6° F 78.9%
Feb 28, 2020 07:50 PM 13 knots 9.3 knots 215° True 6.3° C / 42.6° F 2.8° C / 35.6° F 78.1%
Feb 28, 2020 07:40 PM 16.1 knots 13.8 knots 210° True 6.2° C / 42.4° F 3° C / 36° F 80%
Feb 28, 2020 07:30 PM 21.8 knots 18.2 knots 207° True 6.1° C / 42.2° F 3.1° C / 36.2° F 80.8%
Feb 28, 2020 07:20 PM 21.8 knots 19 knots 203° True 6.1° C / 42.2° F 3.1° C / 36.2° F 81.3%
Feb 28, 2020 07:10 PM 21.8 knots 19.4 knots 203° True 6.1° C / 42.2° F 2.9° C / 35.8° F 79.9%
Feb 28, 2020 07:00 PM 21.2 knots 17.8 knots 211° True 5.9° C / 41.8° F 2.9° C / 35.8° F 81%
Feb 28, 2020 06:50 PM 22.6 knots 18.9 knots 221° True 6° C / 42° F 2.9° C / 35.8° F 80.8%
Feb 28, 2020 06:40 PM 21.6 knots 17.8 knots 221° True 6.1° C / 42.2° F 2.8° C / 35.6° F 79.6%
Feb 28, 2020 06:30 PM 18.1 knots 15.1 knots 220° True 6° C / 42° F 2.7° C / 35.4° F 79.6%
Feb 28, 2020 06:20 PM 17.1 knots 14 knots 224° True 5.8° C / 41.6° F 2.7° C / 35.4° F 80.3%
Feb 28, 2020 06:10 PM 15.4 knots 13 knots 228° True 5.9° C / 41.8° F 2.6° C / 35.2° F 79.4%
Feb 28, 2020 06:00 PM 14.8 knots 12.3 knots 224° True 6° C / 42° F 2.7° C / 35.4° F 79%
Feb 28, 2020 05:50 PM 16.7 knots 14 knots 219° True 6.1° C / 42.2° F 2.7° C / 35.4° F 78.9%
Feb 28, 2020 05:40 PM 17 knots 15 knots 208° True 6.2° C / 42.4° F 2.9° C / 35.8° F 79.5%
Feb 28, 2020 05:30 PM 19 knots 16.2 knots 200° True 6.3° C / 42.6° F 2.8° C / 35.6° F 78.2%
Feb 28, 2020 05:20 PM 22.4 knots 19 knots 198° True 6.1° C / 42.2° F 2.6° C / 35.2° F 78.1%
Feb 28, 2020 05:10 PM 25.5 knots 21.5 knots 194° True 5.9° C / 41.8° F 2.8° C / 35.6° F 80.8%
Feb 28, 2020 05:00 PM 27.1 knots 22.1 knots 210° True 5.8° C / 41.6° F 3° C / 36° F 82.2%
Feb 28, 2020 04:50 PM 27.1 knots 21.8 knots 216° True 5.8° C / 41.6° F 3.1° C / 36.2° F 82.7%
Feb 28, 2020 04:40 PM 23.7 knots 20.6 knots 218° True 5.7° C / 41.4° F 3.2° C / 36.4° F 84%
Feb 28, 2020 04:30 PM 28.1 knots 23.4 knots 209° True 5.7° C / 41.4° F 3.6° C / 37.2° F 86%
Feb 28, 2020 04:20 PM 29.2 knots 25.3 knots 209° True 5.9° C / 41.8° F 3.6° C / 37.2° F 85%
Feb 28, 2020 04:10 PM 35.8 knots 28.1 knots 214° True 6.4° C / 42.8° F 3.5° C / 37° F 81.4%
Feb 28, 2020 04:00 PM 33.4 knots 26.5 knots 221° True 6.9° C / 43.8° F 4.5° C / 39° F 85.1%
Feb 28, 2020 03:50 PM 30.5 knots 16.1 knots 220° True 6.9° C / 43.8° F 4.7° C / 39.4° F 86.1%
Feb 28, 2020 03:40 PM 8.2 knots 6.9 knots 100° True 6.8° C / 43.6° F 4.8° C / 39.6° F 87.2%
Feb 28, 2020 03:30 PM 8.5 knots 4.7 knots 99° True 7.1° C / 44.2° F 4.7° C / 39.4° F 84.6%
Feb 28, 2020 03:20 PM 2.2 knots 1.1 knots 85° True 7.1° C / 44.2° F 4.6° C / 39.2° F 84.1%
Feb 28, 2020 03:10 PM 3.9 knots 2.5 knots 93° True 7° C / 44° F 4.7° C / 39.4° F 85.3%
Feb 28, 2020 03:00 PM 6.1 knots 4.2 knots 103° True 6.9° C / 43.8° F 4.7° C / 39.4° F 85.7%